sensor_id;sensor_type;location;lat;lon;timestamp;pressure;altitude;pressure_sealevel;temperature;humidity
69411;BME280;56604;48.652;9.194;2024-01-15T00:02:06;95135.16;;;-2.35;83.78
69411;BME280;56604;48.652;9.194;2024-01-15T00:04:39;95133.34;;;-2.35;83.58
69411;BME280;56604;48.652;9.194;2024-01-15T00:07:09;95120.69;;;-2.30;84.21
69411;BME280;56604;48.652;9.194;2024-01-15T00:09:35;95124.84;;;-2.29;83.89
69411;BME280;56604;48.652;9.194;2024-01-15T00:12:01;95113.56;;;-2.34;84.34
69411;BME280;56604;48.652;9.194;2024-01-15T00:14:26;95115.34;;;-2.28;84.54
69411;BME280;56604;48.652;9.194;2024-01-15T00:16:52;95116.94;;;-2.27;84.63
69411;BME280;56604;48.652;9.194;2024-01-15T00:19:20;95112.78;;;-2.21;85.28
69411;BME280;56604;48.652;9.194;2024-01-15T00:21:46;95106.25;;;-2.17;85.10
69411;BME280;56604;48.652;9.194;2024-01-15T00:24:11;95103.06;;;-2.19;85.08
69411;BME280;56604;48.652;9.194;2024-01-15T00:26:37;95107.25;;;-2.18;84.85
69411;BME280;56604;48.652;9.194;2024-01-15T00:29:02;95113.56;;;-2.14;85.17
69411;BME280;56604;48.652;9.194;2024-01-15T00:31:29;95114.19;;;-2.19;84.72
69411;BME280;56604;48.652;9.194;2024-01-15T00:33:55;95108.25;;;-2.13;84.78
69411;BME280;56604;48.652;9.194;2024-01-15T00:36:20;95107.63;;;-2.15;84.62
69411;BME280;56604;48.652;9.194;2024-01-15T00:38:46;95106.84;;;-2.15;84.90
69411;BME280;56604;48.652;9.194;2024-01-15T00:41:12;95107.84;;;-2.30;84.95
69411;BME280;56604;48.652;9.194;2024-01-15T00:43:38;95099.13;;;-2.29;84.97
69411;BME280;56604;48.652;9.194;2024-01-15T00:46:04;95101.47;;;-2.40;85.64
69411;BME280;56604;48.652;9.194;2024-01-15T00:48:29;95099.50;;;-2.38;86.58
69411;BME280;56604;48.652;9.194;2024-01-15T00:50:54;95087.63;;;-2.46;86.49
69411;BME280;56604;48.652;9.194;2024-01-15T00:53:20;95097.50;;;-2.56;86.16
69411;BME280;56604;48.652;9.194;2024-01-15T00:55:47;95102.22;;;-2.66;87.49
69411;BME280;56604;48.652;9.194;2024-01-15T00:58:13;95090.38;;;-2.67;87.33
69411;BME280;56604;48.652;9.194;2024-01-15T01:00:38;95099.84;;;-2.75;88.09
69411;BME280;56604;48.652;9.194;2024-01-15T01:03:03;95115.66;;;-2.78;88.43
69411;BME280;56604;48.652;9.194;2024-01-15T01:05:29;95113.09;;;-2.78;88.19
69411;BME280;56604;48.652;9.194;2024-01-15T01:07:54;95118.78;;;-2.89;88.84
69411;BME280;56604;48.652;9.194;2024-01-15T01:10:20;95113.66;;;-2.82;88.66
69411;BME280;56604;48.652;9.194;2024-01-15T01:12:45;95118.22;;;-2.78;89.33
69411;BME280;56604;48.652;9.194;2024-01-15T01:15:10;95102.59;;;-2.76;89.00
69411;BME280;56604;48.652;9.194;2024-01-15T01:17:36;95107.38;;;-2.73;89.29
69411;BME280;56604;48.652;9.194;2024-01-15T01:20:01;95105.41;;;-2.64;89.39
69411;BME280;56604;48.652;9.194;2024-01-15T01:22:29;95096.31;;;-2.60;88.95
69411;BME280;56604;48.652;9.194;2024-01-15T01:24:55;95100.28;;;-2.58;89.21
69411;BME280;56604;48.652;9.194;2024-01-15T01:27:20;95101.44;;;-2.54;89.37
69411;BME280;56604;48.652;9.194;2024-01-15T01:29:45;95106.59;;;-2.60;89.24
69411;BME280;56604;48.652;9.194;2024-01-15T01:32:11;95106.03;;;-2.49;88.92
69411;BME280;56604;48.652;9.194;2024-01-15T01:34:40;95110.56;;;-2.51;88.29
69411;BME280;56604;48.652;9.194;2024-01-15T01:37:07;95111.78;;;-2.47;87.94
69411;BME280;56604;48.652;9.194;2024-01-15T01:39:32;95113.34;;;-2.46;87.15
69411;BME280;56604;48.652;9.194;2024-01-15T01:41:58;95111.56;;;-2.45;87.73
69411;BME280;56604;48.652;9.194;2024-01-15T01:44:23;95108.59;;;-2.49;87.77
69411;BME280;56604;48.652;9.194;2024-01-15T01:46:48;95104.06;;;-2.47;87.42
69411;BME280;56604;48.652;9.194;2024-01-15T01:49:14;95102.66;;;-2.50;88.06
69411;BME280;56604;48.652;9.194;2024-01-15T01:51:39;95102.66;;;-2.43;87.73
69411;BME280;56604;48.652;9.194;2024-01-15T01:54:05;95106.63;;;-2.47;87.66
69411;BME280;56604;48.652;9.194;2024-01-15T01:56:33;95114.53;;;-2.55;88.53
69411;BME280;56604;48.652;9.194;2024-01-15T01:59:00;95109.78;;;-2.58;88.79
69411;BME280;56604;48.652;9.194;2024-01-15T02:01:26;95108.97;;;-2.59;88.52
69411;BME280;56604;48.652;9.194;2024-01-15T02:03:51;95108.72;;;-2.71;89.33
69411;BME280;56604;48.652;9.194;2024-01-15T02:06:17;95108.56;;;-2.62;89.51
69411;BME280;56604;48.652;9.194;2024-01-15T02:08:43;95104.25;;;-2.55;89.12
69411;BME280;56604;48.652;9.194;2024-01-15T02:11:09;95101.84;;;-2.57;89.57
69411;BME280;56604;48.652;9.194;2024-01-15T02:13:34;95097.13;;;-2.53;89.36
69411;BME280;56604;48.652;9.194;2024-01-15T02:15:59;95099.47;;;-2.58;89.79
69411;BME280;56604;48.652;9.194;2024-01-15T02:18:24;95089.97;;;-2.51;89.33
69411;BME280;56604;48.652;9.194;2024-01-15T02:20:50;95090.75;;;-2.57;89.54
69411;BME280;56604;48.652;9.194;2024-01-15T02:23:15;95088.41;;;-2.59;90.32
69411;BME280;56604;48.652;9.194;2024-01-15T02:25:46;95076.13;;;-2.63;90.50
69411;BME280;56604;48.652;9.194;2024-01-15T02:28:16;95080.47;;;-2.64;90.46
69411;BME280;56604;48.652;9.194;2024-01-15T02:30:42;95075.72;;;-2.60;91.22
69411;BME280;56604;48.652;9.194;2024-01-15T02:33:09;95076.91;;;-2.56;90.88
69411;BME280;56604;48.652;9.194;2024-01-15T02:35:35;95074.94;;;-2.61;91.16
69411;BME280;56604;48.652;9.194;2024-01-15T02:38:05;95071.97;;;-2.58;91.36
69411;BME280;56604;48.652;9.194;2024-01-15T02:40:30;95073.75;;;-2.58;91.33
69411;BME280;56604;48.652;9.194;2024-01-15T02:42:56;95076.16;;;-2.50;91.33
69411;BME280;56604;48.652;9.194;2024-01-15T02:45:22;95075.75;;;-2.47;91.14
69411;BME280;56604;48.652;9.194;2024-01-15T02:47:47;95072.97;;;-2.45;91.22
69411;BME280;56604;48.652;9.194;2024-01-15T02:50:13;95073.38;;;-2.42;90.89
69411;BME280;56604;48.652;9.194;2024-01-15T02:52:38;95066.03;;;-2.45;91.23
69411;BME280;56604;48.652;9.194;2024-01-15T02:55:04;95065.06;;;-2.44;91.48
69411;BME280;56604;48.652;9.194;2024-01-15T02:57:29;95067.63;;;-2.44;91.53
69411;BME280;56604;48.652;9.194;2024-01-15T02:59:55;95058.91;;;-2.43;92.15
69411;BME280;56604;48.652;9.194;2024-01-15T03:02:20;95054.56;;;-2.42;91.97
69411;BME280;56604;48.652;9.194;2024-01-15T03:04:46;95067.44;;;-2.42;91.77
69411;BME280;56604;48.652;9.194;2024-01-15T03:07:11;95056.75;;;-2.46;92.15
69411;BME280;56604;48.652;9.194;2024-01-15T03:09:37;95061.50;;;-2.43;92.21
69411;BME280;56604;48.652;9.194;2024-01-15T03:12:02;95063.09;;;-2.42;91.98
69411;BME280;56604;48.652;9.194;2024-01-15T03:14:28;95053.16;;;-2.45;92.28
69411;BME280;56604;48.652;9.194;2024-01-15T03:16:53;95055.97;;;-2.46;92.57
69411;BME280;56604;48.652;9.194;2024-01-15T03:19:19;95054.78;;;-2.44;92.33
69411;BME280;56604;48.652;9.194;2024-01-15T03:21:44;95058.31;;;-2.45;92.29
69411;BME280;56604;48.652;9.194;2024-01-15T03:24:09;95061.88;;;-2.46;92.49
69411;BME280;56604;48.652;9.194;2024-01-15T03:26:34;95058.72;;;-2.48;92.15
69411;BME280;56604;48.652;9.194;2024-01-15T03:29:00;95052.00;;;-2.49;92.98
69411;BME280;56604;48.652;9.194;2024-01-15T03:31:26;95047.44;;;-2.54;92.66
69411;BME280;56604;48.652;9.194;2024-01-15T03:33:51;95050.41;;;-2.50;93.00
69411;BME280;56604;48.652;9.194;2024-01-15T03:36:16;95047.84;;;-2.50;93.29
69411;BME280;56604;48.652;9.194;2024-01-15T03:38:41;95048.25;;;-2.53;93.12
69411;BME280;56604;48.652;9.194;2024-01-15T03:41:07;95049.41;;;-2.49;93.05
69411;BME280;56604;48.652;9.194;2024-01-15T03:43:32;95039.13;;;-2.49;93.14
69411;BME280;56604;48.652;9.194;2024-01-15T03:45:58;95055.16;;;-2.47;92.38
69411;BME280;56604;48.652;9.194;2024-01-15T03:48:23;95048.63;;;-2.50;92.45
69411;BME280;56604;48.652;9.194;2024-01-15T03:50:48;95047.44;;;-2.47;93.17
69411;BME280;56604;48.652;9.194;2024-01-15T03:53:14;95051.59;;;-2.46;91.94
69411;BME280;56604;48.652;9.194;2024-01-15T03:55:39;95052.19;;;-2.44;93.14
69411;BME280;56604;48.652;9.194;2024-01-15T03:58:04;95043.69;;;-2.38;92.56
69411;BME280;56604;48.652;9.194;2024-01-15T04:00:29;95047.03;;;-2.31;92.57
69411;BME280;56604;48.652;9.194;2024-01-15T04:02:55;95046.28;;;-2.24;92.17
69411;BME280;56604;48.652;9.194;2024-01-15T04:05:20;95041.28;;;-2.19;92.05
69411;BME280;56604;48.652;9.194;2024-01-15T04:07:45;95046.03;;;-2.16;92.09
69411;BME280;56604;48.652;9.194;2024-01-15T04:10:11;95035.53;;;-2.08;91.85
69411;BME280;56604;48.652;9.194;2024-01-15T04:12:36;95046.44;;;-2.06;92.13
69411;BME280;56604;48.652;9.194;2024-01-15T04:15:02;95039.50;;;-2.06;92.27
69411;BME280;56604;48.652;9.194;2024-01-15T04:17:27;95040.50;;;-2.00;92.18
69411;BME280;56604;48.652;9.194;2024-01-15T04:19:53;95046.84;;;-1.96;92.30
69411;BME280;56604;48.652;9.194;2024-01-15T04:22:18;95041.91;;;-2.04;92.38
69411;BME280;56604;48.652;9.194;2024-01-15T04:24:43;95041.09;;;-1.98;92.57
69411;BME280;56604;48.652;9.194;2024-01-15T04:27:09;95039.28;;;-1.91;92.28
69411;BME280;56604;48.652;9.194;2024-01-15T04:29:34;95044.44;;;-1.91;92.10
69411;BME280;56604;48.652;9.194;2024-01-15T04:31:59;95038.91;;;-1.88;91.94
69411;BME280;56604;48.652;9.194;2024-01-15T04:34:24;95037.91;;;-1.87;91.98
69411;BME280;56604;48.652;9.194;2024-01-15T04:36:50;95029.19;;;-1.79;91.25
69411;BME280;56604;48.652;9.194;2024-01-15T04:39:15;95034.13;;;-1.77;91.30
69411;BME280;56604;48.652;9.194;2024-01-15T04:41:40;95031.72;;;-1.72;91.02
69411;BME280;56604;48.652;9.194;2024-01-15T04:44:05;95034.91;;;-1.70;91.07
69411;BME280;56604;48.652;9.194;2024-01-15T04:46:31;95036.88;;;-1.72;91.02
69411;BME280;56604;48.652;9.194;2024-01-15T04:48:56;95045.63;;;-1.73;91.34
69411;BME280;56604;48.652;9.194;2024-01-15T04:51:21;95039.25;;;-1.71;91.90
69411;BME280;56604;48.652;9.194;2024-01-15T04:53:47;95040.25;;;-1.72;91.76
69411;BME280;56604;48.652;9.194;2024-01-15T04:56:12;95040.47;;;-1.73;92.41
69411;BME280;56604;48.652;9.194;2024-01-15T04:58:37;95046.78;;;-1.69;92.18
69411;BME280;56604;48.652;9.194;2024-01-15T05:01:03;95044.41;;;-1.77;92.41
69411;BME280;56604;48.652;9.194;2024-01-15T05:03:28;95042.78;;;-1.65;92.65
69411;BME280;56604;48.652;9.194;2024-01-15T05:05:54;95041.03;;;-1.71;92.12
69411;BME280;56604;48.652;9.194;2024-01-15T05:08:20;95047.78;;;-1.70;92.65
69411;BME280;56604;48.652;9.194;2024-01-15T05:10:45;95048.94;;;-1.66;92.04
69411;BME280;56604;48.652;9.194;2024-01-15T05:13:10;95043.00;;;-1.67;92.30
69411;BME280;56604;48.652;9.194;2024-01-15T05:15:36;95041.19;;;-1.60;92.61
69411;BME280;56604;48.652;9.194;2024-01-15T05:18:01;95054.31;;;-1.68;92.76
69411;BME280;56604;48.652;9.194;2024-01-15T05:20:26;95056.69;;;-1.66;93.21
69411;BME280;56604;48.652;9.194;2024-01-15T05:22:52;95056.31;;;-1.70;93.28
69411;BME280;56604;48.652;9.194;2024-01-15T05:25:17;95051.94;;;-1.69;92.75
69411;BME280;56604;48.652;9.194;2024-01-15T05:27:42;95047.75;;;-1.64;92.88
69411;BME280;56604;48.652;9.194;2024-01-15T05:30:08;95047.56;;;-1.62;92.90
69411;BME280;56604;48.652;9.194;2024-01-15T05:32:33;95047.72;;;-1.57;93.23
69411;BME280;56604;48.652;9.194;2024-01-15T05:34:59;95032.84;;;-1.48;92.38
69411;BME280;56604;48.652;9.194;2024-01-15T05:37:24;95035.03;;;-1.52;93.03
69411;BME280;56604;48.652;9.194;2024-01-15T05:39:49;95030.84;;;-1.46;92.91
69411;BME280;56604;48.652;9.194;2024-01-15T05:42:15;95027.91;;;-1.50;92.97
69411;BME280;56604;48.652;9.194;2024-01-15T05:44:40;95034.03;;;-1.51;93.64
69411;BME280;56604;48.652;9.194;2024-01-15T05:47:05;95036.00;;;-1.46;93.53
69411;BME280;56604;48.652;9.194;2024-01-15T05:49:30;95017.78;;;-1.51;94.14
69411;BME280;56604;48.652;9.194;2024-01-15T05:51:56;95028.72;;;-1.56;93.79
69411;BME280;56604;48.652;9.194;2024-01-15T05:54:21;95018.00;;;-1.60;93.92
69411;BME280;56604;48.652;9.194;2024-01-15T05:56:46;95028.53;;;-1.61;94.26
69411;BME280;56604;48.652;9.194;2024-01-15T05:59:12;95017.22;;;-1.60;94.86
69411;BME280;56604;48.652;9.194;2024-01-15T06:01:37;95023.59;;;-1.69;95.37
69411;BME280;56604;48.652;9.194;2024-01-15T06:04:02;95026.19;;;-1.69;95.07
69411;BME280;56604;48.652;9.194;2024-01-15T06:06:28;95017.81;;;-1.58;94.67
69411;BME280;56604;48.652;9.194;2024-01-15T06:08:53;95019.41;;;-1.57;94.60
69411;BME280;56604;48.652;9.194;2024-01-15T06:11:18;95014.25;;;-1.57;94.56
69411;BME280;56604;48.652;9.194;2024-01-15T06:13:43;95011.28;;;-1.61;94.52
69411;BME280;56604;48.652;9.194;2024-01-15T06:16:15;95011.50;;;-1.62;95.17
69411;BME280;56604;48.652;9.194;2024-01-15T06:18:41;95004.75;;;-1.63;94.88
69411;BME280;56604;48.652;9.194;2024-01-15T06:21:07;95002.00;;;-1.62;95.43
69411;BME280;56604;48.652;9.194;2024-01-15T06:23:32;94990.91;;;-1.62;95.33
69411;BME280;56604;48.652;9.194;2024-01-15T06:25:57;95000.00;;;-1.66;95.48
69411;BME280;56604;48.652;9.194;2024-01-15T06:28:23;94994.44;;;-1.56;94.81
69411;BME280;56604;48.652;9.194;2024-01-15T06:30:48;94989.13;;;-1.75;94.97
69411;BME280;56604;48.652;9.194;2024-01-15T06:33:13;94989.09;;;-1.68;95.73
69411;BME280;56604;48.652;9.194;2024-01-15T06:35:39;94985.16;;;-1.64;94.95
69411;BME280;56604;48.652;9.194;2024-01-15T06:38:04;94980.59;;;-1.69;95.34
69411;BME280;56604;48.652;9.194;2024-01-15T06:40:29;94971.84;;;-1.61;94.99
69411;BME280;56604;48.652;9.194;2024-01-15T06:42:55;94970.28;;;-1.69;94.88
69411;BME280;56604;48.652;9.194;2024-01-15T06:45:20;94974.66;;;-1.69;95.05
69411;BME280;56604;48.652;9.194;2024-01-15T06:47:45;94971.25;;;-1.56;94.48
69411;BME280;56604;48.652;9.194;2024-01-15T06:50:10;94968.88;;;-1.58;93.67
69411;BME280;56604;48.652;9.194;2024-01-15T06:52:36;94960.69;;;-1.42;93.74
69411;BME280;56604;48.652;9.194;2024-01-15T06:55:01;94957.13;;;-1.47;92.61
69411;BME280;56604;48.652;9.194;2024-01-15T06:57:27;94964.47;;;-1.51;92.63
69411;BME280;56604;48.652;9.194;2024-01-15T06:59:52;94962.69;;;-1.50;92.26
69411;BME280;56604;48.652;9.194;2024-01-15T07:02:17;94956.34;;;-1.54;92.02
69411;BME280;56604;48.652;9.194;2024-01-15T07:04:43;94955.75;;;-1.50;91.68
69411;BME280;56604;48.652;9.194;2024-01-15T07:07:08;94946.44;;;-1.51;91.30
69411;BME280;56604;48.652;9.194;2024-01-15T07:09:33;94949.19;;;-1.46;90.48
69411;BME280;56604;48.652;9.194;2024-01-15T07:11:58;94951.34;;;-1.43;89.82
69411;BME280;56604;48.652;9.194;2024-01-15T07:14:24;94956.50;;;-1.43;89.25
69411;BME280;56604;48.652;9.194;2024-01-15T07:16:49;94958.66;;;-1.40;88.33
69411;BME280;56604;48.652;9.194;2024-01-15T07:19:15;94949.53;;;-1.36;87.91
69411;BME280;56604;48.652;9.194;2024-01-15T07:21:40;94954.09;;;-1.38;88.14
69411;BME280;56604;48.652;9.194;2024-01-15T07:24:08;94959.84;;;-1.36;88.15
69411;BME280;56604;48.652;9.194;2024-01-15T07:26:33;94965.78;;;-0.72;89.74
69411;BME280;56604;48.652;9.194;2024-01-15T07:28:59;94962.78;;;-0.94;86.18
69411;BME280;56604;48.652;9.194;2024-01-15T07:31:24;94967.44;;;-1.09;86.09
69411;BME280;56604;48.652;9.194;2024-01-15T07:33:49;94971.25;;;-1.18;87.01
69411;BME280;56604;48.652;9.194;2024-01-15T07:36:15;94975.75;;;-1.07;87.31
69411;BME280;56604;48.652;9.194;2024-01-15T07:38:40;94977.97;;;-1.10;86.30
69411;BME280;56604;48.652;9.194;2024-01-15T07:41:05;94971.63;;;-1.15;86.61
69411;BME280;56604;48.652;9.194;2024-01-15T07:43:31;94978.16;;;-1.12;86.22
69411;BME280;56604;48.652;9.194;2024-01-15T07:45:56;94973.59;;;-1.10;85.45
69411;BME280;56604;48.652;9.194;2024-01-15T07:48:22;94967.84;;;-1.12;84.83
69411;BME280;56604;48.652;9.194;2024-01-15T07:50:47;94968.63;;;-1.11;84.80
69411;BME280;56604;48.652;9.194;2024-01-15T07:53:12;94962.28;;;-1.09;85.03
69411;BME280;56604;48.652;9.194;2024-01-15T07:55:38;94964.66;;;-1.07;84.25
69411;BME280;56604;48.652;9.194;2024-01-15T07:58:03;94966.44;;;-1.08;84.25
69411;BME280;56604;48.652;9.194;2024-01-15T08:00:29;94961.25;;;-1.01;83.62
69411;BME280;56604;48.652;9.194;2024-01-15T08:02:54;94959.03;;;-0.98;83.89
69411;BME280;56604;48.652;9.194;2024-01-15T08:05:19;94960.41;;;-0.95;82.30
69411;BME280;56604;48.652;9.194;2024-01-15T08:07:46;94973.09;;;-0.94;82.64
69411;BME280;56604;48.652;9.194;2024-01-15T08:10:11;94968.31;;;-0.90;82.77
69411;BME280;56604;48.652;9.194;2024-01-15T08:12:38;94969.34;;;-0.98;82.88
69411;BME280;56604;48.652;9.194;2024-01-15T08:15:04;94966.94;;;-0.93;82.36
69411;BME280;56604;48.652;9.194;2024-01-15T08:17:30;94974.69;;;-0.93;81.91
69411;BME280;56604;48.652;9.194;2024-01-15T08:19:57;94968.69;;;-0.86;82.22
69411;BME280;56604;48.652;9.194;2024-01-15T08:22:23;94967.09;;;-0.87;81.93
69411;BME280;56604;48.652;9.194;2024-01-15T08:24:48;94974.19;;;-0.83;81.73
69411;BME280;56604;48.652;9.194;2024-01-15T08:27:14;94967.06;;;-0.81;81.43
69411;BME280;56604;48.652;9.194;2024-01-15T08:29:39;94967.84;;;-0.80;81.57
69411;BME280;56604;48.652;9.194;2024-01-15T08:32:05;94968.44;;;-0.78;81.16
69411;BME280;56604;48.652;9.194;2024-01-15T08:34:30;94964.41;;;-0.74;81.37
69411;BME280;56604;48.652;9.194;2024-01-15T08:36:56;94960.00;;;-0.67;81.04
69411;BME280;56604;48.652;9.194;2024-01-15T08:39:21;94970.44;;;-0.55;80.85
69411;BME280;56604;48.652;9.194;2024-01-15T08:41:46;94964.91;;;-0.59;79.69
69411;BME280;56604;48.652;9.194;2024-01-15T08:44:12;94964.50;;;-0.56;79.56
69411;BME280;56604;48.652;9.194;2024-01-15T08:46:37;94961.69;;;-0.54;79.62
69411;BME280;56604;48.652;9.194;2024-01-15T08:49:03;94964.22;;;-0.48;79.26
69411;BME280;56604;48.652;9.194;2024-01-15T08:51:28;94974.44;;;-0.34;78.22
69411;BME280;56604;48.652;9.194;2024-01-15T08:53:54;94969.00;;;-0.26;77.32
69411;BME280;56604;48.652;9.194;2024-01-15T08:56:19;94976.91;;;-0.21;77.16
69411;BME280;56604;48.652;9.194;2024-01-15T08:58:44;94981.28;;;-0.21;77.06
69411;BME280;56604;48.652;9.194;2024-01-15T09:01:11;94981.78;;;-0.13;76.45
69411;BME280;56604;48.652;9.194;2024-01-15T09:03:36;94981.06;;;-0.20;76.69
69411;BME280;56604;48.652;9.194;2024-01-15T09:06:02;94979.84;;;-0.17;76.90
69411;BME280;56604;48.652;9.194;2024-01-15T09:08:28;94982.75;;;-0.07;76.45
69411;BME280;56604;48.652;9.194;2024-01-15T09:10:53;94962.19;;;-0.20;76.19
69411;BME280;56604;48.652;9.194;2024-01-15T09:13:18;94968.88;;;-0.13;75.46
69411;BME280;56604;48.652;9.194;2024-01-15T09:15:44;94962.44;;;-0.04;75.53
69411;BME280;56604;48.652;9.194;2024-01-15T09:18:09;94969.03;;;-0.08;75.21
69411;BME280;56604;48.652;9.194;2024-01-15T09:20:35;94960.84;;;-0.05;74.60
69411;BME280;56604;48.652;9.194;2024-01-15T09:23:00;94953.97;;;0.08;75.23
69411;BME280;56604;48.652;9.194;2024-01-15T09:25:26;94951.97;;;0.10;74.29
69411;BME280;56604;48.652;9.194;2024-01-15T09:27:51;94950.41;;;0.09;74.02
69411;BME280;56604;48.652;9.194;2024-01-15T09:30:17;94948.09;;;0.19;74.10
69411;BME280;56604;48.652;9.194;2024-01-15T09:32:42;94944.56;;;0.13;73.77
69411;BME280;56604;48.652;9.194;2024-01-15T09:35:08;94940.47;;;0.24;73.78
69411;BME280;56604;48.652;9.194;2024-01-15T09:37:34;94945.06;;;0.22;73.81
69411;BME280;56604;48.652;9.194;2024-01-15T09:39:59;94936.59;;;0.33;73.58
69411;BME280;56604;48.652;9.194;2024-01-15T09:42:24;94934.59;;;0.35;73.47
69411;BME280;56604;48.652;9.194;2024-01-15T09:44:50;94930.00;;;0.37;72.49
69411;BME280;56604;48.652;9.194;2024-01-15T09:47:16;94917.25;;;0.54;72.55
69411;BME280;56604;48.652;9.194;2024-01-15T09:49:42;94924.78;;;0.56;72.13
69411;BME280;56604;48.652;9.194;2024-01-15T09:52:09;94913.13;;;0.65;72.30
69411;BME280;56604;48.652;9.194;2024-01-15T09:54:36;94912.13;;;0.66;71.23
69411;BME280;56604;48.652;9.194;2024-01-15T09:57:01;94905.38;;;0.65;71.46
69411;BME280;56604;48.652;9.194;2024-01-15T09:59:28;94911.13;;;0.67;71.44
69411;BME280;56604;48.652;9.194;2024-01-15T10:01:54;94920.00;;;0.71;71.25
69411;BME280;56604;48.652;9.194;2024-01-15T10:04:20;94916.19;;;0.74;71.14
69411;BME280;56604;48.652;9.194;2024-01-15T10:06:46;94919.00;;;0.72;71.27
69411;BME280;56604;48.652;9.194;2024-01-15T10:09:13;94907.06;;;0.71;71.61
69411;BME280;56604;48.652;9.194;2024-01-15T10:11:42;94913.84;;;0.72;71.26
69411;BME280;56604;48.652;9.194;2024-01-15T10:14:09;94912.00;;;0.61;71.69
69411;BME280;56604;48.652;9.194;2024-01-15T10:16:37;94901.66;;;0.61;71.14
69411;BME280;56604;48.652;9.194;2024-01-15T10:19:02;94903.50;;;0.72;71.83
69411;BME280;56604;48.652;9.194;2024-01-15T10:21:28;94904.63;;;0.76;71.50
69411;BME280;56604;48.652;9.194;2024-01-15T10:23:53;94899.66;;;0.63;72.04
69411;BME280;56604;48.652;9.194;2024-01-15T10:26:24;94900.50;;;0.57;71.71
69411;BME280;56604;48.652;9.194;2024-01-15T10:28:50;94891.53;;;0.59;72.07
69411;BME280;56604;48.652;9.194;2024-01-15T10:31:17;94896.03;;;0.64;72.11
69411;BME280;56604;48.652;9.194;2024-01-15T10:33:44;94899.00;;;0.79;71.73
69411;BME280;56604;48.652;9.194;2024-01-15T10:36:10;94891.56;;;0.71;72.31
69411;BME280;56604;48.652;9.194;2024-01-15T10:38:36;94899.88;;;0.73;72.16
69411;BME280;56604;48.652;9.194;2024-01-15T10:41:02;94898.91;;;0.74;72.51
69411;BME280;56604;48.652;9.194;2024-01-15T10:43:27;94896.09;;;0.87;72.16
69411;BME280;56604;48.652;9.194;2024-01-15T10:45:52;94896.84;;;0.76;72.29
69411;BME280;56604;48.652;9.194;2024-01-15T10:48:19;94892.16;;;0.85;72.41
69411;BME280;56604;48.652;9.194;2024-01-15T10:50:45;94888.47;;;0.93;72.61
69411;BME280;56604;48.652;9.194;2024-01-15T10:53:12;94895.13;;;0.88;71.80
69411;BME280;56604;48.652;9.194;2024-01-15T10:55:39;94880.25;;;0.96;72.08
69411;BME280;56604;48.652;9.194;2024-01-15T10:58:07;94876.13;;;0.95;72.28
69411;BME280;56604;48.652;9.194;2024-01-15T11:00:35;94877.47;;;0.97;72.19
69411;BME280;56604;48.652;9.194;2024-01-15T11:03:01;94878.81;;;1.00;72.61
69411;BME280;56604;48.652;9.194;2024-01-15T11:05:27;94883.78;;;1.13;71.96
69411;BME280;56604;48.652;9.194;2024-01-15T11:07:56;94877.81;;;1.12;72.53
69411;BME280;56604;48.652;9.194;2024-01-15T11:10:40;94887.00;;;0.97;72.65
69411;BME280;56604;48.652;9.194;2024-01-15T11:13:09;94892.19;;;0.97;73.06
69411;BME280;56604;48.652;9.194;2024-01-15T11:16:03;94878.56;;;0.89;74.36
69411;BME280;56604;48.652;9.194;2024-01-15T11:23:55;94861.94;;;0.85;75.56
69411;BME280;56604;48.652;9.194;2024-01-15T11:29:28;94841.56;;;0.89;75.40
69411;BME280;56604;48.652;9.194;2024-01-15T11:32:07;94843.72;;;1.04;75.55
69411;BME280;56604;48.652;9.194;2024-01-15T11:37:23;94838.31;;;0.94;75.96
69411;BME280;56604;48.652;9.194;2024-01-15T11:39:51;94843.03;;;0.97;75.33
69411;BME280;56604;48.652;9.194;2024-01-15T11:42:16;94832.00;;;0.89;76.68
69411;BME280;56604;48.652;9.194;2024-01-15T11:44:43;94834.34;;;0.91;77.21
69411;BME280;56604;48.652;9.194;2024-01-15T11:47:11;94824.38;;;0.95;77.48
69411;BME280;56604;48.652;9.194;2024-01-15T11:49:58;94820.09;;;0.88;76.80
69411;BME280;56604;48.652;9.194;2024-01-15T11:52:38;94838.75;;;0.90;76.78
69411;BME280;56604;48.652;9.194;2024-01-15T11:55:22;94837.50;;;0.93;77.15
69411;BME280;56604;48.652;9.194;2024-01-15T11:57:52;94848.56;;;0.88;77.74
69411;BME280;56604;48.652;9.194;2024-01-15T12:00:20;94841.91;;;0.93;78.78
69411;BME280;56604;48.652;9.194;2024-01-15T12:02:47;94860.78;;;0.81;80.44
69411;BME280;56604;48.652;9.194;2024-01-15T12:05:15;94861.34;;;0.83;81.57
69411;BME280;56604;48.652;9.194;2024-01-15T12:07:44;94860.34;;;0.84;83.96
69411;BME280;56604;48.652;9.194;2024-01-15T12:10:11;94870.19;;;0.64;86.93
69411;BME280;56604;48.652;9.194;2024-01-15T12:12:59;94876.53;;;0.50;88.71
69411;BME280;56604;48.652;9.194;2024-01-15T12:15:29;94864.94;;;0.40;90.63
69411;BME280;56604;48.652;9.194;2024-01-15T12:17:56;94866.22;;;0.50;91.22
69411;BME280;56604;48.652;9.194;2024-01-15T12:20:30;94865.31;;;0.56;91.57
69411;BME280;56604;48.652;9.194;2024-01-15T12:22:57;94862.47;;;0.45;91.66
69411;BME280;56604;48.652;9.194;2024-01-15T12:25:23;94872.63;;;0.59;92.70
69411;BME280;56604;48.652;9.194;2024-01-15T12:27:51;94863.72;;;0.43;94.18
69411;BME280;56604;48.652;9.194;2024-01-15T12:30:17;94866.13;;;0.26;95.67
69411;BME280;56604;48.652;9.194;2024-01-15T12:32:42;94858.06;;;0.34;96.18
69411;BME280;56604;48.652;9.194;2024-01-15T12:35:09;94864.19;;;0.21;96.82
69411;BME280;56604;48.652;9.194;2024-01-15T12:37:36;94867.81;;;0.32;97.40
69411;BME280;56604;48.652;9.194;2024-01-15T12:40:02;94865.88;;;0.28;97.32
69411;BME280;56604;48.652;9.194;2024-01-15T12:42:28;94868.28;;;0.29;97.35
69411;BME280;56604;48.652;9.194;2024-01-15T12:44:58;94870.56;;;0.37;97.30
69411;BME280;56604;48.652;9.194;2024-01-15T12:47:23;94870.91;;;0.41;97.19
69411;BME280;56604;48.652;9.194;2024-01-15T12:49:51;94876.72;;;0.36;97.55
69411;BME280;56604;48.652;9.194;2024-01-15T12:52:19;94881.34;;;0.34;97.10
69411;BME280;56604;48.652;9.194;2024-01-15T12:54:45;94877.00;;;0.28;98.49
69411;BME280;56604;48.652;9.194;2024-01-15T12:57:10;94868.78;;;0.19;100.00
69411;BME280;56604;48.652;9.194;2024-01-15T12:59:36;94876.97;;;0.16;100.00
69411;BME280;56604;48.652;9.194;2024-01-15T13:02:01;94880.59;;;0.27;100.00
69411;BME280;56604;48.652;9.194;2024-01-15T13:04:26;94886.91;;;0.31;100.00
69411;BME280;56604;48.652;9.194;2024-01-15T13:06:52;94877.00;;;0.28;100.00
69411;BME280;56604;48.652;9.194;2024-01-15T13:09:18;94873.00;;;0.14;100.00